sensor_id;sensor_type;location;lat;lon;timestamp;temperature;humidity
65396;HTU21D;52004;45.136;39.010;2023-06-19T00:00:40;21.81;69.94
65396;HTU21D;52004;45.136;39.010;2023-06-19T00:03:06;21.77;69.98
65396;HTU21D;52004;45.136;39.010;2023-06-19T00:05:32;21.75;70.00
65396;HTU21D;52004;45.136;39.010;2023-06-19T00:07:57;21.72;70.01
65396;HTU21D;52004;45.136;39.010;2023-06-19T00:10:23;21.67;70.03
65396;HTU21D;52004;45.136;39.010;2023-06-19T00:12:49;21.65;70.07
65396;HTU21D;52004;45.136;39.010;2023-06-19T00:15:15;21.61;70.07
65396;HTU21D;52004;45.136;39.010;2023-06-19T00:17:41;21.59;70.10
65396;HTU21D;52004;45.136;39.010;2023-06-19T00:20:07;21.55;70.16
65396;HTU21D;52004;45.136;39.010;2023-06-19T00:22:33;21.53;70.18
65396;HTU21D;52004;45.136;39.010;2023-06-19T00:24:59;21.50;70.19
65396;HTU21D;52004;45.136;39.010;2023-06-19T00:27:25;21.47;70.20
65396;HTU21D;52004;45.136;39.010;2023-06-19T00:29:51;21.46;70.21
65396;HTU21D;52004;45.136;39.010;2023-06-19T00:32:18;21.42;70.24
65396;HTU21D;52004;45.136;39.010;2023-06-19T00:34:44;21.38;70.26
65396;HTU21D;52004;45.136;39.010;2023-06-19T00:37:09;21.35;70.29
65396;HTU21D;52004;45.136;39.010;2023-06-19T00:39:39;21.31;70.34
65396;HTU21D;52004;45.136;39.010;2023-06-19T00:42:05;21.28;70.36
65396;HTU21D;52004;45.136;39.010;2023-06-19T00:44:30;21.25;70.35
65396;HTU21D;52004;45.136;39.010;2023-06-19T00:46:57;21.21;70.39
65396;HTU21D;52004;45.136;39.010;2023-06-19T00:49:25;21.16;70.45
65396;HTU21D;52004;45.136;39.010;2023-06-19T00:51:51;21.15;70.49
65396;HTU21D;52004;45.136;39.010;2023-06-19T00:54:17;21.11;70.52
65396;HTU21D;52004;45.136;39.010;2023-06-19T00:56:44;21.09;70.52
65396;HTU21D;52004;45.136;39.010;2023-06-19T00:59:17;21.04;70.57
65396;HTU21D;52004;45.136;39.010;2023-06-19T01:01:43;20.98;70.68
65396;HTU21D;52004;45.136;39.010;2023-06-19T01:04:09;20.95;70.73
65396;HTU21D;52004;45.136;39.010;2023-06-19T01:06:41;20.92;70.74
65396;HTU21D;52004;45.136;39.010;2023-06-19T01:09:08;20.90;70.74
65396;HTU21D;52004;45.136;39.010;2023-06-19T01:11:37;20.85;70.78
65396;HTU21D;52004;45.136;39.010;2023-06-19T01:14:52;20.83;70.82
65396;HTU21D;52004;45.136;39.010;2023-06-19T01:16:54;20.79;70.84
65396;HTU21D;52004;45.136;39.010;2023-06-19T01:19:20;20.78;70.88
65396;HTU21D;52004;45.136;39.010;2023-06-19T01:21:47;20.74;70.87
65396;HTU21D;52004;45.136;39.010;2023-06-19T01:24:13;20.73;70.91
65396;HTU21D;52004;45.136;39.010;2023-06-19T01:26:39;20.71;70.91
65396;HTU21D;52004;45.136;39.010;2023-06-19T01:29:05;20.71;70.93
65396;HTU21D;52004;45.136;39.010;2023-06-19T01:31:36;20.68;70.93
65396;HTU21D;52004;45.136;39.010;2023-06-19T01:34:04;20.66;70.94
65396;HTU21D;52004;45.136;39.010;2023-06-19T01:36:31;20.64;70.95
65396;HTU21D;52004;45.136;39.010;2023-06-19T01:38:59;20.62;70.97
65396;HTU21D;52004;45.136;39.010;2023-06-19T01:41:25;20.60;70.98
65396;HTU21D;52004;45.136;39.010;2023-06-19T01:43:52;20.59;71.00
65396;HTU21D;52004;45.136;39.010;2023-06-19T01:46:18;20.57;71.00
65396;HTU21D;52004;45.136;39.010;2023-06-19T01:48:44;20.53;71.00
65396;HTU21D;52004;45.136;39.010;2023-06-19T01:51:10;20.49;71.05
65396;HTU21D;52004;45.136;39.010;2023-06-19T01:53:38;20.46;71.16
65396;HTU21D;52004;45.136;39.010;2023-06-19T01:56:04;20.44;71.26
65396;HTU21D;52004;45.136;39.010;2023-06-19T01:58:30;20.44;71.31
65396;HTU21D;52004;45.136;39.010;2023-06-19T02:00:56;20.44;71.33
65396;HTU21D;52004;45.136;39.010;2023-06-19T02:03:22;20.46;71.32
65396;HTU21D;52004;45.136;39.010;2023-06-19T02:05:47;20.46;71.31
65396;HTU21D;52004;45.136;39.010;2023-06-19T02:08:13;20.49;71.32
65396;HTU21D;52004;45.136;39.010;2023-06-19T02:10:39;20.49;71.29
65396;HTU21D;52004;45.136;39.010;2023-06-19T02:13:05;20.50;71.29
65396;HTU21D;52004;45.136;39.010;2023-06-19T02:15:31;20.51;71.33
65396;HTU21D;52004;45.136;39.010;2023-06-19T02:17:57;20.54;71.36
65396;HTU21D;52004;45.136;39.010;2023-06-19T02:20:25;20.56;71.35
65396;HTU21D;52004;45.136;39.010;2023-06-19T02:22:51;20.58;71.37
65396;HTU21D;52004;45.136;39.010;2023-06-19T02:25:17;20.60;71.39
65396;HTU21D;52004;45.136;39.010;2023-06-19T02:27:43;20.61;71.42
65396;HTU21D;52004;45.136;39.010;2023-06-19T02:30:09;20.63;71.45
65396;HTU21D;52004;45.136;39.010;2023-06-19T02:32:35;20.63;71.48
65396;HTU21D;52004;45.136;39.010;2023-06-19T02:35:03;20.66;71.54
65396;HTU21D;52004;45.136;39.010;2023-06-19T02:37:29;20.70;71.55
65396;HTU21D;52004;45.136;39.010;2023-06-19T02:39:55;20.74;71.55
65396;HTU21D;52004;45.136;39.010;2023-06-19T02:42:21;20.76;71.56
65396;HTU21D;52004;45.136;39.010;2023-06-19T02:44:47;20.83;71.55
65396;HTU21D;52004;45.136;39.010;2023-06-19T02:47:12;20.86;71.55
65396;HTU21D;52004;45.136;39.010;2023-06-19T02:49:38;20.90;71.56
65396;HTU21D;52004;45.136;39.010;2023-06-19T02:52:04;20.93;71.56
65396;HTU21D;52004;45.136;39.010;2023-06-19T02:54:30;21.01;71.56
65396;HTU21D;52004;45.136;39.010;2023-06-19T02:56:58;21.05;71.55
65396;HTU21D;52004;45.136;39.010;2023-06-19T02:59:25;21.07;71.53
65396;HTU21D;52004;45.136;39.010;2023-06-19T03:01:51;21.11;71.51
65396;HTU21D;52004;45.136;39.010;2023-06-19T03:04:17;21.15;71.53
65396;HTU21D;52004;45.136;39.010;2023-06-19T03:06:43;21.16;71.54
65396;HTU21D;52004;45.136;39.010;2023-06-19T03:09:09;21.20;71.54
65396;HTU21D;52004;45.136;39.010;2023-06-19T03:11:38;21.22;71.57
65396;HTU21D;52004;45.136;39.010;2023-06-19T03:14:04;21.24;71.58
65396;HTU21D;52004;45.136;39.010;2023-06-19T03:16:33;21.30;71.60
65396;HTU21D;52004;45.136;39.010;2023-06-19T03:18:59;21.33;71.57
65396;HTU21D;52004;45.136;39.010;2023-06-19T03:21:25;21.37;71.58
65396;HTU21D;52004;45.136;39.010;2023-06-19T03:23:52;21.42;71.58
65396;HTU21D;52004;45.136;39.010;2023-06-19T03:26:20;21.46;71.58
65396;HTU21D;52004;45.136;39.010;2023-06-19T03:28:46;21.51;71.58
65396;HTU21D;52004;45.136;39.010;2023-06-19T03:31:15;21.57;71.57
65396;HTU21D;52004;45.136;39.010;2023-06-19T03:33:41;21.58;71.57
65396;HTU21D;52004;45.136;39.010;2023-06-19T03:36:08;21.63;71.61
65396;HTU21D;52004;45.136;39.010;2023-06-19T03:38:48;21.67;71.59
65396;HTU21D;52004;45.136;39.010;2023-06-19T03:41:17;21.73;71.59
65396;HTU21D;52004;45.136;39.010;2023-06-19T03:43:43;21.78;71.60
65396;HTU21D;52004;45.136;39.010;2023-06-19T03:46:09;21.83;71.60
65396;HTU21D;52004;45.136;39.010;2023-06-19T03:48:35;21.90;71.61
65396;HTU21D;52004;45.136;39.010;2023-06-19T03:51:01;21.95;71.60
65396;HTU21D;52004;45.136;39.010;2023-06-19T03:53:27;22.03;71.59
65396;HTU21D;52004;45.136;39.010;2023-06-19T03:55:54;22.09;71.58
65396;HTU21D;52004;45.136;39.010;2023-06-19T03:58:20;22.14;71.55
65396;HTU21D;52004;45.136;39.010;2023-06-19T04:00:45;22.21;71.57
65396;HTU21D;52004;45.136;39.010;2023-06-19T04:03:11;22.29;71.57
65396;HTU21D;52004;45.136;39.010;2023-06-19T04:05:37;22.39;71.53
65396;HTU21D;52004;45.136;39.010;2023-06-19T04:08:04;22.49;71.48
65396;HTU21D;52004;45.136;39.010;2023-06-19T04:10:30;22.55;71.45
65396;HTU21D;52004;45.136;39.010;2023-06-19T04:12:56;22.61;71.42
65396;HTU21D;52004;45.136;39.010;2023-06-19T04:15:22;22.69;71.40
65396;HTU21D;52004;45.136;39.010;2023-06-19T04:17:48;22.77;71.40
65396;HTU21D;52004;45.136;39.010;2023-06-19T04:20:14;22.86;71.43
65396;HTU21D;52004;45.136;39.010;2023-06-19T04:22:40;22.98;71.51
65396;HTU21D;52004;45.136;39.010;2023-06-19T04:25:07;23.10;71.51
65396;HTU21D;52004;45.136;39.010;2023-06-19T04:27:34;23.22;71.51
65396;HTU21D;52004;45.136;39.010;2023-06-19T04:30:00;23.34;71.49
65396;HTU21D;52004;45.136;39.010;2023-06-19T04:32:26;23.44;71.45
65396;HTU21D;52004;45.136;39.010;2023-06-19T04:34:52;23.57;71.41
65396;HTU21D;52004;45.136;39.010;2023-06-19T04:37:18;23.66;71.32
65396;HTU21D;52004;45.136;39.010;2023-06-19T04:39:45;23.73;71.16
65396;HTU21D;52004;45.136;39.010;2023-06-19T04:42:12;23.80;71.22
65396;HTU21D;52004;45.136;39.010;2023-06-19T04:44:38;23.89;71.22
65396;HTU21D;52004;45.136;39.010;2023-06-19T04:47:04;23.96;71.16
65396;HTU21D;52004;45.136;39.010;2023-06-19T04:49:30;24.04;71.19
65396;HTU21D;52004;45.136;39.010;2023-06-19T04:51:56;0.00;71.10
65396;HTU21D;52004;45.136;39.010;2023-06-19T04:54:23;24.18;71.14
65396;HTU21D;52004;45.136;39.010;2023-06-19T04:56:48;24.29;71.16
65396;HTU21D;52004;45.136;39.010;2023-06-19T04:59:15;24.36;71.12
65396;HTU21D;52004;45.136;39.010;2023-06-19T05:01:43;24.47;71.06
65396;HTU21D;52004;45.136;39.010;2023-06-19T05:04:09;24.56;71.03
65396;HTU21D;52004;45.136;39.010;2023-06-19T05:06:36;0.00;70.93
65396;HTU21D;52004;45.136;39.010;2023-06-19T05:09:02;24.71;70.84
65396;HTU21D;52004;45.136;39.010;2023-06-19T05:11:28;24.77;70.82
65396;HTU21D;52004;45.136;39.010;2023-06-19T05:13:54;24.85;70.82
65396;HTU21D;52004;45.136;39.010;2023-06-19T05:16:20;24.93;70.81
65396;HTU21D;52004;45.136;39.010;2023-06-19T05:18:48;25.02;70.79
65396;HTU21D;52004;45.136;39.010;2023-06-19T05:21:14;25.12;70.73
65396;HTU21D;52004;45.136;39.010;2023-06-19T05:23:40;0.00;70.61
65396;HTU21D;52004;45.136;39.010;2023-06-19T05:26:06;25.23;70.48
65396;HTU21D;52004;45.136;39.010;2023-06-19T05:28:32;0.00;70.50
65396;HTU21D;52004;45.136;39.010;2023-06-19T05:30:58;0.00;70.54
65396;HTU21D;52004;45.136;39.010;2023-06-19T05:33:24;25.40;70.54
65396;HTU21D;52004;45.136;39.010;2023-06-19T05:35:49;25.49;70.50
65396;HTU21D;52004;45.136;39.010;2023-06-19T05:38:20;25.57;70.32
65396;HTU21D;52004;45.136;39.010;2023-06-19T05:40:47;25.60;70.21
65396;HTU21D;52004;45.136;39.010;2023-06-19T05:43:13;25.65;70.32
65396;HTU21D;52004;45.136;39.010;2023-06-19T05:45:39;25.72;70.32
65396;HTU21D;52004;45.136;39.010;2023-06-19T05:48:04;25.80;70.26
65396;HTU21D;52004;45.136;39.010;2023-06-19T05:50:30;25.89;70.26
65396;HTU21D;52004;45.136;39.010;2023-06-19T05:52:56;25.97;70.25
65396;HTU21D;52004;45.136;39.010;2023-06-19T05:55:22;26.07;70.17
65396;HTU21D;52004;45.136;39.010;2023-06-19T05:57:50;26.15;70.11
65396;HTU21D;52004;45.136;39.010;2023-06-19T06:00:16;26.22;70.14
65396;HTU21D;52004;45.136;39.010;2023-06-19T06:02:42;26.33;70.13
65396;HTU21D;52004;45.136;39.010;2023-06-19T06:05:08;0.00;70.11
65396;HTU21D;52004;45.136;39.010;2023-06-19T06:07:35;26.53;69.95
65396;HTU21D;52004;45.136;39.010;2023-06-19T06:10:01;26.61;69.87
65396;HTU21D;52004;45.136;39.010;2023-06-19T06:12:27;26.67;69.74
65396;HTU21D;52004;45.136;39.010;2023-06-19T06:14:53;26.71;69.58
65396;HTU21D;52004;45.136;39.010;2023-06-19T06:17:19;26.70;69.50
65396;HTU21D;52004;45.136;39.010;2023-06-19T06:19:45;26.75;69.61
65396;HTU21D;52004;45.136;39.010;2023-06-19T06:22:10;26.82;69.62
65396;HTU21D;52004;45.136;39.010;2023-06-19T06:24:36;0.00;69.39
65396;HTU21D;52004;45.136;39.010;2023-06-19T06:27:02;26.87;69.29
65396;HTU21D;52004;45.136;39.010;2023-06-19T06:29:28;26.89;69.33
65396;HTU21D;52004;45.136;39.010;2023-06-19T06:32:02;26.95;69.40
65396;HTU21D;52004;45.136;39.010;2023-06-19T06:34:29;27.04;69.31
65396;HTU21D;52004;45.136;39.010;2023-06-19T06:36:55;27.09;69.26
65396;HTU21D;52004;45.136;39.010;2023-06-19T06:39:20;27.15;69.16
65396;HTU21D;52004;45.136;39.010;2023-06-19T06:41:46;27.20;69.10
65396;HTU21D;52004;45.136;39.010;2023-06-19T06:44:12;27.28;69.22
65396;HTU21D;52004;45.136;39.010;2023-06-19T06:46:38;27.36;69.05
65396;HTU21D;52004;45.136;39.010;2023-06-19T06:49:04;27.43;68.94
65396;HTU21D;52004;45.136;39.010;2023-06-19T06:51:30;27.49;68.91
65396;HTU21D;52004;45.136;39.010;2023-06-19T06:53:56;27.56;68.94
65396;HTU21D;52004;45.136;39.010;2023-06-19T06:56:22;27.63;68.77
65396;HTU21D;52004;45.136;39.010;2023-06-19T06:58:48;27.68;68.74
65396;HTU21D;52004;45.136;39.010;2023-06-19T07:01:14;27.75;68.80
65396;HTU21D;52004;45.136;39.010;2023-06-19T07:03:40;27.84;68.65
65396;HTU21D;52004;45.136;39.010;2023-06-19T07:06:06;27.88;68.53
65396;HTU21D;52004;45.136;39.010;2023-06-19T07:08:31;27.96;68.55
65396;HTU21D;52004;45.136;39.010;2023-06-19T07:11:00;0.00;68.46
65396;HTU21D;52004;45.136;39.010;2023-06-19T07:13:26;28.15;68.47
65396;HTU21D;52004;45.136;39.010;2023-06-19T07:15:52;0.00;68.31
65396;HTU21D;52004;45.136;39.010;2023-06-19T07:18:18;28.34;68.33
65396;HTU21D;52004;45.136;39.010;2023-06-19T07:20:44;28.42;68.23
65396;HTU21D;52004;45.136;39.010;2023-06-19T07:23:10;28.49;68.20
65396;HTU21D;52004;45.136;39.010;2023-06-19T07:25:37;0.00;68.05
65396;HTU21D;52004;45.136;39.010;2023-06-19T07:28:03;28.68;68.04
65396;HTU21D;52004;45.136;39.010;2023-06-19T07:30:30;28.77;67.95
65396;HTU21D;52004;45.136;39.010;2023-06-19T07:32:56;28.85;67.92
65396;HTU21D;52004;45.136;39.010;2023-06-19T07:35:22;28.90;67.74
65396;HTU21D;52004;45.136;39.010;2023-06-19T07:37:48;28.98;67.68
65396;HTU21D;52004;45.136;39.010;2023-06-19T07:40:14;29.02;67.48
65396;HTU21D;52004;45.136;39.010;2023-06-19T07:42:40;29.06;67.48
65396;HTU21D;52004;45.136;39.010;2023-06-19T07:47:58;29.22;67.33
65396;HTU21D;52004;45.136;39.010;2023-06-19T07:50:24;29.29;67.32
65396;HTU21D;52004;45.136;39.010;2023-06-19T07:52:50;29.35;67.20
65396;HTU21D;52004;45.136;39.010;2023-06-19T07:55:16;29.38;67.06
65396;HTU21D;52004;45.136;39.010;2023-06-19T07:57:42;29.45;67.07
65396;HTU21D;52004;45.136;39.010;2023-06-19T08:00:08;29.51;66.98
65396;HTU21D;52004;45.136;39.010;2023-06-19T08:02:37;29.58;66.91
65396;HTU21D;52004;45.136;39.010;2023-06-19T08:05:03;29.65;66.88
65396;HTU21D;52004;45.136;39.010;2023-06-19T08:07:29;29.72;66.73
65396;HTU21D;52004;45.136;39.010;2023-06-19T08:09:55;29.77;66.53
65396;HTU21D;52004;45.136;39.010;2023-06-19T08:12:20;29.78;66.47
65396;HTU21D;52004;45.136;39.010;2023-06-19T08:14:46;29.83;66.56
65396;HTU21D;52004;45.136;39.010;2023-06-19T08:17:12;29.93;66.63
65396;HTU21D;52004;45.136;39.010;2023-06-19T08:19:38;30.07;66.58
65396;HTU21D;52004;45.136;39.010;2023-06-19T08:22:05;30.13;66.20
65396;HTU21D;52004;45.136;39.010;2023-06-19T08:24:31;30.18;66.17
65396;HTU21D;52004;45.136;39.010;2023-06-19T08:26:57;30.23;65.97
65396;HTU21D;52004;45.136;39.010;2023-06-19T08:29:41;30.25;65.88
65396;HTU21D;52004;45.136;39.010;2023-06-19T08:32:08;30.30;65.91
65396;HTU21D;52004;45.136;39.010;2023-06-19T08:34:35;30.35;65.72
65396;HTU21D;52004;45.136;39.010;2023-06-19T08:37:02;30.40;65.66
65396;HTU21D;52004;45.136;39.010;2023-06-19T08:39:28;30.44;65.37
65396;HTU21D;52004;45.136;39.010;2023-06-19T08:41:54;30.40;65.22
65396;HTU21D;52004;45.136;39.010;2023-06-19T08:44:20;30.38;65.30
65396;HTU21D;52004;45.136;39.010;2023-06-19T08:46:45;30.41;65.32
65396;HTU21D;52004;45.136;39.010;2023-06-19T08:49:30;30.51;65.29
65396;HTU21D;52004;45.136;39.010;2023-06-19T08:51:56;30.60;65.08
65396;HTU21D;52004;45.136;39.010;2023-06-19T08:54:22;30.65;65.07
65396;HTU21D;52004;45.136;39.010;2023-06-19T08:56:48;30.72;64.98
65396;HTU21D;52004;45.136;39.010;2023-06-19T08:59:39;30.79;64.87
65396;HTU21D;52004;45.136;39.010;2023-06-19T09:02:06;30.87;64.81
65396;HTU21D;52004;45.136;39.010;2023-06-19T09:04:32;30.96;64.76
65396;HTU21D;52004;45.136;39.010;2023-06-19T09:07:00;31.04;64.51
65396;HTU21D;52004;45.136;39.010;2023-06-19T09:09:27;31.08;64.43
65396;HTU21D;52004;45.136;39.010;2023-06-19T09:12:07;31.10;64.24
65396;HTU21D;52004;45.136;39.010;2023-06-19T09:17:21;31.21;64.30
65396;HTU21D;52004;45.136;39.010;2023-06-19T09:19:54;31.15;63.89
65396;HTU21D;52004;45.136;39.010;2023-06-19T09:25:07;30.87;63.87
65396;HTU21D;52004;45.136;39.010;2023-06-19T09:27:35;30.86;64.14
65396;HTU21D;52004;45.136;39.010;2023-06-19T09:30:01;30.93;64.16
65396;HTU21D;52004;45.136;39.010;2023-06-19T09:32:28;30.92;63.85
65396;HTU21D;52004;45.136;39.010;2023-06-19T09:37:40;30.65;63.60
65396;HTU21D;52004;45.136;39.010;2023-06-19T09:40:06;30.50;63.66
65396;HTU21D;52004;45.136;39.010;2023-06-19T09:42:51;30.35;63.66
65396;HTU21D;52004;45.136;39.010;2023-06-19T09:45:24;30.23;63.78
65396;HTU21D;52004;45.136;39.010;2023-06-19T09:47:52;30.20;63.85
65396;HTU21D;52004;45.136;39.010;2023-06-19T09:50:26;30.17;63.91
65396;HTU21D;52004;45.136;39.010;2023-06-19T09:53:11;30.25;63.99
65396;HTU21D;52004;45.136;39.010;2023-06-19T09:55:37;30.33;63.95
65396;HTU21D;52004;45.136;39.010;2023-06-19T09:58:03;30.44;63.81
65396;HTU21D;52004;45.136;39.010;2023-06-19T10:00:31;30.45;63.47
65396;HTU21D;52004;45.136;39.010;2023-06-19T10:02:57;30.36;63.37
65396;HTU21D;52004;45.136;39.010;2023-06-19T10:05:31;30.26;63.27
65396;HTU21D;52004;45.136;39.010;2023-06-19T10:07:57;30.11;63.16
65396;HTU21D;52004;45.136;39.010;2023-06-19T10:10:26;29.97;63.22
65396;HTU21D;52004;45.136;39.010;2023-06-19T10:18:46;29.73;63.48
65396;HTU21D;52004;45.136;39.010;2023-06-19T10:21:19;29.70;63.47
65396;HTU21D;52004;45.136;39.010;2023-06-19T10:26:37;29.68;63.41
65396;HTU21D;52004;45.136;39.010;2023-06-19T10:29:13;29.68;63.39
65396;HTU21D;52004;45.136;39.010;2023-06-19T10:31:39;29.75;63.54
65396;HTU21D;52004;45.136;39.010;2023-06-19T10:34:05;29.93;63.67
65396;HTU21D;52004;45.136;39.010;2023-06-19T10:36:49;30.23;63.69
65396;HTU21D;52004;45.136;39.010;2023-06-19T10:39:34;30.53;63.50
65396;HTU21D;52004;45.136;39.010;2023-06-19T10:41:59;30.78;63.36
65396;HTU21D;52004;45.136;39.010;2023-06-19T10:44:25;31.01;63.21
65396;HTU21D;52004;45.136;39.010;2023-06-19T10:46:52;31.24;62.96
65396;HTU21D;52004;45.136;39.010;2023-06-19T10:49:18;31.39;62.68
65396;HTU21D;52004;45.136;39.010;2023-06-19T10:51:44;31.50;62.55
65396;HTU21D;52004;45.136;39.010;2023-06-19T10:54:10;31.61;62.46
65396;HTU21D;52004;45.136;39.010;2023-06-19T10:56:36;31.72;62.28
65396;HTU21D;52004;45.136;39.010;2023-06-19T10:59:03;31.82;61.97
65396;HTU21D;52004;45.136;39.010;2023-06-19T11:01:38;31.87;61.86
65396;HTU21D;52004;45.136;39.010;2023-06-19T11:04:22;31.92;61.87
65396;HTU21D;52004;45.136;39.010;2023-06-19T11:06:49;31.99;61.90
65396;HTU21D;52004;45.136;39.010;2023-06-19T11:09:15;32.08;61.70
65396;HTU21D;52004;45.136;39.010;2023-06-19T11:11:59;32.12;61.66
65396;HTU21D;52004;45.136;39.010;2023-06-19T11:15:03;32.16;61.44
65396;HTU21D;52004;45.136;39.010;2023-06-19T11:17:29;32.12;61.25
65396;HTU21D;52004;45.136;39.010;2023-06-19T11:19:56;32.10;61.18
65396;HTU21D;52004;45.136;39.010;2023-06-19T11:22:34;32.05;61.12
65396;HTU21D;52004;45.136;39.010;2023-06-19T11:25:04;32.03;61.11
65396;HTU21D;52004;45.136;39.010;2023-06-19T11:27:30;32.01;60.89
65396;HTU21D;52004;45.136;39.010;2023-06-19T11:32:41;31.83;60.66
65396;HTU21D;52004;45.136;39.010;2023-06-19T11:35:08;31.73;60.67
65396;HTU21D;52004;45.136;39.010;2023-06-19T11:37:35;31.64;60.58
65396;HTU21D;52004;45.136;39.010;2023-06-19T11:40:19;31.54;60.42
65396;HTU21D;52004;45.136;39.010;2023-06-19T11:45:31;31.35;60.47
65396;HTU21D;52004;45.136;39.010;2023-06-19T11:47:58;31.30;60.44
65396;HTU21D;52004;45.136;39.010;2023-06-19T11:50:28;31.23;60.31
65396;HTU21D;52004;45.136;39.010;2023-06-19T11:52:54;31.08;60.16
65396;HTU21D;52004;45.136;39.010;2023-06-19T11:55:20;30.96;60.12
65396;HTU21D;52004;45.136;39.010;2023-06-19T11:57:46;30.85;60.31
65396;HTU21D;52004;45.136;39.010;2023-06-19T12:00:13;30.78;60.35
65396;HTU21D;52004;45.136;39.010;2023-06-19T12:02:39;30.72;60.42
65396;HTU21D;52004;45.136;39.010;2023-06-19T12:05:05;30.68;60.35
65396;HTU21D;52004;45.136;39.010;2023-06-19T12:07:31;30.62;60.27
65396;HTU21D;52004;45.136;39.010;2023-06-19T12:09:57;30.52;60.19
65396;HTU21D;52004;45.136;39.010;2023-06-19T12:12:23;30.42;60.23
65396;HTU21D;52004;45.136;39.010;2023-06-19T12:14:51;30.37;60.27
65396;HTU21D;52004;45.136;39.010;2023-06-19T12:17:17;30.32;60.25
65396;HTU21D;52004;45.136;39.010;2023-06-19T12:19:43;30.24;60.12
65396;HTU21D;52004;45.136;39.010;2023-06-19T12:22:09;30.11;60.06
65396;HTU21D;52004;45.136;39.010;2023-06-19T12:24:35;29.98;60.12
65396;HTU21D;52004;45.136;39.010;2023-06-19T12:27:01;29.85;60.25
65396;HTU21D;52004;45.136;39.010;2023-06-19T12:29:26;29.71;60.34
65396;HTU21D;52004;45.136;39.010;2023-06-19T12:31:52;29.59;60.44
65396;HTU21D;52004;45.136;39.010;2023-06-19T12:37:03;29.39;60.67
65396;HTU21D;52004;45.136;39.010;2023-06-19T12:39:29;29.32;60.73
65396;HTU21D;52004;45.136;39.010;2023-06-19T12:41:55;29.28;60.76
65396;HTU21D;52004;45.136;39.010;2023-06-19T12:44:21;29.22;60.77
65396;HTU21D;52004;45.136;39.010;2023-06-19T12:46:47;29.14;60.76
65396;HTU21D;52004;45.136;39.010;2023-06-19T12:49:13;29.05;60.84
65396;HTU21D;52004;45.136;39.010;2023-06-19T12:51:39;28.98;60.90
65396;HTU21D;52004;45.136;39.010;2023-06-19T12:54:05;28.91;60.90
65396;HTU21D;52004;45.136;39.010;2023-06-19T12:56:30;28.82;60.95
65396;HTU21D;52004;45.136;39.010;2023-06-19T12:58:56;28.69;61.03
65396;HTU21D;52004;45.136;39.010;2023-06-19T13:01:22;0.00;61.07
65396;HTU21D;52004;45.136;39.010;2023-06-19T13:03:48;28.44;61.19
65396;HTU21D;52004;45.136;39.010;2023-06-19T13:06:14;28.33;61.31
65396;HTU21D;52004;45.136;39.010;2023-06-19T13:08:40;28.27;61.34
65396;HTU21D;52004;45.136;39.010;2023-06-19T13:11:06;28.19;61.36
65396;HTU21D;52004;45.136;39.010;2023-06-19T13:13:31;28.10;61.42
65396;HTU21D;52004;45.136;39.010;2023-06-19T13:15:58;27.97;61.31
65396;HTU21D;52004;45.136;39.010;2023-06-19T13:18:24;27.84;61.63
65396;HTU21D;52004;45.136;39.010;2023-06-19T13:20:50;27.75;61.70
65396;HTU21D;52004;45.136;39.010;2023-06-19T13:23:16;27.66;61.74
65396;HTU21D;52004;45.136;39.010;2023-06-19T13:25:42;27.51;61.81
65396;HTU21D;52004;45.136;39.010;2023-06-19T13:28:07;27.35;61.73
65396;HTU21D;52004;45.136;39.010;2023-06-19T13:30:43;27.14;61.88
65396;HTU21D;52004;45.136;39.010;2023-06-19T13:33:13;26.91;62.02
65396;HTU21D;52004;45.136;39.010;2023-06-19T13:35:39;26.67;62.15
65396;HTU21D;52004;45.136;39.010;2023-06-19T13:38:05;26.39;62.36
65396;HTU21D;52004;45.136;39.010;2023-06-19T13:40:31;26.19;62.50
65396;HTU21D;52004;45.136;39.010;2023-06-19T13:42:57;25.95;62.53
65396;HTU21D;52004;45.136;39.010;2023-06-19T13:45:24;25.60;62.86
65396;HTU21D;52004;45.136;39.010;2023-06-19T13:47:50;25.33;63.10
65396;HTU21D;52004;45.136;39.010;2023-06-19T13:50:16;25.13;63.30
65396;HTU21D;52004;45.136;39.010;2023-06-19T13:52:45;24.95;63.27
65396;HTU21D;52004;45.136;39.010;2023-06-19T13:55:11;24.63;63.48
65396;HTU21D;52004;45.136;39.010;2023-06-19T13:57:39;24.35;63.86
65396;HTU21D;52004;45.136;39.010;2023-06-19T14:00:06;0.00;64.15
65396;HTU21D;52004;45.136;39.010;2023-06-19T14:02:38;0.00;64.33
65396;HTU21D;52004;45.136;39.010;2023-06-19T14:05:05;23.97;64.35
65396;HTU21D;52004;45.136;39.010;2023-06-19T14:07:32;23.96;64.31
65396;HTU21D;52004;45.136;39.010;2023-06-19T14:09:58;23.95;64.30
65396;HTU21D;52004;45.136;39.010;2023-06-19T14:12:24;23.95;64.27
65396;HTU21D;52004;45.136;39.010;2023-06-19T14:14:50;23.94;64.29
65396;HTU21D;52004;45.136;39.010;2023-06-19T14:17:17;23.96;64.28
65396;HTU21D;52004;45.136;39.010;2023-06-19T14:19:43;23.98;64.28
65396;HTU21D;52004;45.136;39.010;2023-06-19T14:22:09;24.02;64.26
65396;HTU21D;52004;45.136;39.010;2023-06-19T14:24:34;0.00;64.24
65396;HTU21D;52004;45.136;39.010;2023-06-19T14:27:00;23.98;64.30
65396;HTU21D;52004;45.136;39.010;2023-06-19T14:29:26;23.95;64.30
65396;HTU21D;52004;45.136;39.010;2023-06-19T14:31:52;0.00;64.40
65396;HTU21D;52004;45.136;39.010;2023-06-19T14:34:18;23.79;64.59
65396;HTU21D;52004;45.136;39.010;2023-06-19T14:36:45;23.83;64.63
65396;HTU21D;52004;45.136;39.010;2023-06-19T14:39:11;23.87;64.65
65396;HTU21D;52004;45.136;39.010;2023-06-19T14:41:37;23.89;64.61
65396;HTU21D;52004;45.136;39.010;2023-06-19T14:44:03;0.00;64.63
65396;HTU21D;52004;45.136;39.010;2023-06-19T14:46:30;23.94;64.60
65396;HTU21D;52004;45.136;39.010;2023-06-19T14:48:55;23.91;64.55
65396;HTU21D;52004;45.136;39.010;2023-06-19T14:51:26;0.00;64.60
65396;HTU21D;52004;45.136;39.010;2023-06-19T14:54:39;23.72;64.73
65396;HTU21D;52004;45.136;39.010;2023-06-19T14:57:05;23.66;64.83
65396;HTU21D;52004;45.136;39.010;2023-06-19T14:59:30;23.57;64.91
65396;HTU21D;52004;45.136;39.010;2023-06-19T15:01:57;23.45;65.06
65396;HTU21D;52004;45.136;39.010;2023-06-19T15:04:47;23.31;65.27
65396;HTU21D;52004;45.136;39.010;2023-06-19T15:07:38;0.00;65.49
65396;HTU21D;52004;45.136;39.010;2023-06-19T15:10:04;23.24;65.58
65396;HTU21D;52004;45.136;39.010;2023-06-19T15:12:31;0.00;65.56
65396;HTU21D;52004;45.136;39.010;2023-06-19T15:15:00;23.29;65.51
65396;HTU21D;52004;45.136;39.010;2023-06-19T15:17:26;23.27;65.53
65396;HTU21D;52004;45.136;39.010;2023-06-19T15:19:52;23.24;65.61
65396;HTU21D;52004;45.136;39.010;2023-06-19T15:22:18;23.21;65.62
65396;HTU21D;52004;45.136;39.010;2023-06-19T15:24:44;23.21;65.69
65396;HTU21D;52004;45.136;39.010;2023-06-19T15:27:10;23.23;65.70
65396;HTU21D;52004;45.136;39.010;2023-06-19T15:29:37;0.00;65.72
65396;HTU21D;52004;45.136;39.010;2023-06-19T15:32:04;23.25;65.71